Time;durP1;ratioP1;P1;durP2;ratioP2;P2;SDS_P1;SDS_P2;PMS_P1;PMS_P2;Temp;Humidity;BMP_temperature;BMP_pressure;BME280_temperature;BME280_humidity;BME280_pressure;Samples;Min_cycle;Max_cycle;Signal;HPM_P1;HPM_P2
2021/05/03 02:59:23;;;;;;;34.98;11.00;;;;;;;13.23;100.00;100212.23;1701320;83;21005;-90
2021/05/03 03:01:51;;;;;;;15.75;8.85;;;;;;;13.38;100.00;100202.98;1703243;84;21146;-87
2021/05/03 03:04:27;;;;;;;19.02;9.13;;;;;;;13.48;100.00;100207.36;1718411;82;21297;-87
2021/05/03 03:06:55;;;;;;;25.35;9.85;;;;;;;13.54;100.00;100202.87;1696119;83;21194;-88
2021/05/03 03:09:23;;;;;;;18.70;9.13;;;;;;;13.55;100.00;100192.26;1702866;82;21206;-88
2021/05/03 03:12:21;;;;;;;22.80;9.68;;;;;;;13.58;100.00;100202.10;1661226;84;21823;-88
2021/05/03 03:14:50;;;;;;;19.27;8.95;;;;;;;13.58;100.00;100199.48;1715981;82;21643;-87
2021/05/03 03:17:18;;;;;;;22.48;8.63;;;;;;;13.62;100.00;100200.83;1714977;82;21120;-87
2021/05/03 03:19:47;;;;;;;31.48;9.45;;;;;;;13.66;100.00;100200.89;1703701;82;21243;-88
2021/05/03 03:22:15;;;;;;;20.23;9.18;;;;;;;13.69;100.00;100199.27;1692303;83;21242;-88
2021/05/03 03:24:43;;;;;;;18.80;8.95;;;;;;;13.74;100.00;100199.65;1695024;82;21374;-88
2021/05/03 03:27:37;;;;;;;15.63;8.83;;;;;;;13.79;100.00;100202.67;1702945;84;21583;-88
2021/05/03 03:33:55;;;;;;;15.85;7.97;;;;;;;13.91;100.00;100201.14;1706695;81;21636;-88
2021/05/03 03:37:04;;;;;;;27.77;8.80;;;;;;;13.95;100.00;100201.20;1683239;83;21129;-89
2021/05/03 03:43:57;;;;;;;18.73;8.95;;;;;;;14.01;100.00;100207.98;1694287;84;21085;-88
2021/05/03 03:50:15;;;;;;;23.10;7.95;;;;;;;14.01;100.00;100209.30;1686849;82;21222;-88
2021/05/03 03:53:03;;;;;;;18.70;8.63;;;;;;;14.05;100.00;100212.44;1684189;84;21221;-89
2021/05/03 03:56:00;;;;;;;14.28;8.73;;;;;;;14.05;100.00;100215.06;1662694;85;21608;-90
2021/05/03 03:58:28;;;;;;;15.48;8.78;;;;;;;14.09;100.00;100208.54;1655078;86;21659;-87
2021/05/03 04:01:24;;;;;;;22.15;9.30;;;;;;;14.13;100.00;100205.98;1654760;85;21114;-87
2021/05/03 04:03:57;;;;;;;20.43;8.53;;;;;;;14.17;100.00;100211.23;1646419;84;21166;-87
2021/05/03 04:09:18;;;;;;;14.75;8.40;;;;;;;14.25;100.00;100208.36;1671352;84;21380;-87
2021/05/03 04:21:01;;;;;;;12.53;8.05;;;;;;;14.40;100.00;100215.22;1680077;84;21165;-87
2021/05/03 04:25:25;;;;;;;15.90;9.90;;;;;;;14.83;100.00;100206.59;1818257;78;22905;-87
2021/05/03 04:27:47;;;;;;;18.02;10.32;;;;;;;14.86;100.00;100209.89;1792837;79;21204;-88
2021/05/03 04:30:17;;;;;;;18.70;10.40;;;;;;;14.87;100.00;100216.75;1793851;79;21357;-88
2021/05/03 04:32:45;;;;;;;18.07;10.25;;;;;;;14.82;100.00;100215.92;1802434;78;21116;-88
2021/05/03 04:35:14;;;;;;;26.48;10.93;;;;;;;14.82;100.00;100204.13;1802079;78;21199;-88
2021/05/03 04:37:50;;;;;;;19.98;11.95;;;;;;;14.87;100.00;100199.71;1788912;79;21243;-89
2021/05/03 04:40:19;;;;;;;25.10;11.90;;;;;;;14.95;100.00;100209.78;1792699;78;21056;-87
2021/05/03 04:42:47;;;;;;;21.23;11.90;;;;;;;15.06;100.00;100206.58;1792852;79;21367;-87
2021/05/03 04:45:19;;;;;;;30.00;12.60;;;;;;;15.16;100.00;100209.08;1786509;79;21765;-87
2021/05/03 04:48:16;;;;;;;21.73;11.93;;;;;;;15.26;100.00;100202.75;1788806;78;21169;-86
2021/05/03 04:50:46;;;;;;;17.95;11.15;;;;;;;15.40;100.00;100207.91;1792742;79;21175;-88
2021/05/03 04:53:22;;;;;;;29.80;13.38;;;;;;;15.55;100.00;100205.99;1788429;79;21557;-88
2021/05/03 04:55:50;;;;;;;32.85;12.78;;;;;;;15.62;100.00;100182.87;1788595;79;21362;-87
2021/05/03 04:58:19;;;;;;;22.20;12.18;;;;;;;15.70;100.00;100165.04;1786431;79;21199;-90
2021/05/03 05:00:47;;;;;;;25.65;11.70;;;;;;;15.78;100.00;100163.75;1748610;80;21121;-92
2021/05/03 05:03:15;;;;;;;26.80;11.28;;;;;;;15.87;100.00;100166.42;1751040;80;21139;-92
2021/05/03 05:05:52;;;;;;;26.55;11.97;;;;;;;15.96;100.00;100156.27;1779666;80;21166;-92
2021/05/03 05:08:48;;;;;;;21.90;11.73;;;;;;;16.03;100.00;100155.95;1736944;81;21373;-93
2021/05/03 05:14:43;;;;;;;26.45;12.65;;;;;;;16.12;100.00;100201.92;1749929;81;21505;-93
2021/05/03 05:17:11;;;;;;;23.67;12.07;;;;;;;16.11;100.00;100199.77;1770078;80;21128;-93
2021/05/03 05:23:07;;;;;;;28.47;13.95;;;;;;;16.12;100.00;100203.23;1750025;82;21823;-92
2021/05/03 05:25:36;;;;;;;33.25;13.98;;;;;;;16.16;100.00;100184.84;1780802;80;21167;-92
2021/05/03 05:28:04;;;;;;;23.83;13.15;;;;;;;16.16;100.00;100186.16;1749880;82;21131;-93
2021/05/03 05:33:57;;;;;;;30.80;14.73;;;;;;;16.21;100.00;100174.69;1817033;79;21141;-92
2021/05/03 05:36:33;;;;;;;36.30;15.00;;;;;;;16.28;100.00;100174.84;1816279;78;21559;-92
2021/05/03 05:39:32;;;;;;;42.20;15.38;;;;;;;16.31;100.00;100170.58;1816267;79;21257;-93
2021/05/03 05:46:01;;;;;;;33.98;14.78;;;;;;;16.36;100.00;100152.03;1803829;78;21163;-93
2021/05/03 05:48:58;;;;;;;27.42;16.02;;;;;;;16.38;100.00;100143.47;1816183;78;21452;-92
2021/05/03 05:51:27;;;;;;;32.28;16.23;;;;;;;16.36;100.00;100184.03;1816265;79;21623;-93
2021/05/03 05:54:02;;;;;;;38.90;16.32;;;;;;;16.34;100.00;100177.64;1816189;79;21550;-93
2021/05/03 05:56:32;;;;;;;31.55;15.25;;;;;;;16.31;100.00;100170.08;1749228;82;21065;-93
2021/05/03 05:59:01;;;;;;;29.57;14.85;;;;;;;16.28;100.00;100171.73;1816158;79;21151;-93
2021/05/03 06:01:36;;;;;;;28.47;15.08;;;;;;;16.22;100.00;100173.20;1816180;79;21128;-93
2021/05/03 06:04:04;;;;;;;27.40;15.90;;;;;;;16.21;100.00;100182.56;1799348;78;21473;-93
2021/05/03 06:06:39;;;;;;;26.62;16.02;;;;;;;16.21;100.00;100173.38;1794584;79;21186;-94
2021/05/03 06:09:37;;;;;;;24.85;15.15;;;;;;;16.23;100.00;100188.45;1816077;79;21115;-92
2021/05/03 06:12:35;;;;;;;30.43;16.20;;;;;;;16.21;100.00;100187.31;1801647;78;21417;-91
2021/05/03 06:18:42;;;;;;;27.77;16.97;;;;;;;16.26;100.00;100197.34;1792500;78;21207;-90
2021/05/03 06:21:13;;;;;;;38.90;16.20;;;;;;;16.36;100.00;100191.92;1791565;79;21566;-90
2021/05/03 06:31:59;;;;;;;36.85;17.80;;;;;;;16.60;100.00;100195.53;1739421;81;21093;-95
2021/05/03 06:38:52;;;;;;;30.92;17.82;;;;;;;16.81;100.00;100198.48;1763912;81;21136;-95
2021/05/03 06:51:59;;;;;;;29.45;18.82;;;;;;;17.18;100.00;100190.54;1788014;78;21209;-89
2021/05/03 06:54:45;;;;;;;28.83;17.95;;;;;;;17.25;100.00;100192.48;1787416;79;21619;-90
2021/05/03 06:57:17;;;;;;;27.75;18.77;;;;;;;17.28;100.00;100190.34;1787016;78;21128;-92
2021/05/03 07:00:23;;;;;;;31.17;18.43;;;;;;;17.33;100.00;100185.41;1840920;77;21143;-94
2021/05/03 07:03:31;;;;;;;30.62;18.67;;;;;;;17.42;100.00;100186.18;1835642;77;21786;-88
2021/05/03 07:05:59;;;;;;;33.38;20.20;;;;;;;17.64;100.00;100195.62;1822701;77;21027;-91
2021/05/03 07:08:28;;;;;;;29.23;18.92;;;;;;;17.90;100.00;100192.70;1823827;77;21073;-94
2021/05/03 07:10:56;;;;;;;36.93;19.73;;;;;;;18.09;100.00;100189.31;1795777;78;21258;-91
2021/05/03 07:13:25;;;;;;;32.85;18.90;;;;;;;18.21;100.00;100189.23;1779727;78;21103;-88
2021/05/03 07:15:53;;;;;;;32.42;17.85;;;;;;;18.33;100.00;100194.08;1783207;78;21167;-88
2021/05/03 07:18:25;;;;;;;35.15;19.10;;;;;;;18.36;100.00;100191.91;1737913;80;22134;-89
2021/05/03 07:21:09;;;;;;;32.23;17.37;;;;;;;18.41;100.00;100200.61;1808466;78;21174;-89
2021/05/03 07:23:39;;;;;;;28.80;15.80;;;;;;;18.43;100.00;100185.44;1807431;78;21107;-94
2021/05/03 07:33:48;;;;;;;35.25;20.32;;;;;;;18.27;100.00;100181.94;1764508;78;21190;-88
2021/05/03 07:37:03;;;;;;;31.40;17.42;;;;;;;18.02;100.00;100179.15;1818265;77;22749;-91
2021/05/03 07:43:25;;;;;;;24.90;15.18;;;;;;;17.86;100.00;100192.72;1817187;78;21346;-88
2021/05/03 07:45:53;;;;;;;28.42;13.38;;;;;;;17.97;100.00;100198.95;1822697;78;21028;-88
2021/05/03 07:48:22;;;;;;;23.67;12.45;;;;;;;18.08;100.00;100203.47;1819021;78;21113;-88
2021/05/03 07:50:51;;;;;;;23.12;12.40;;;;;;;18.16;100.00;100204.73;1803831;78;21231;-88
2021/05/03 07:53:27;;;;;;;22.07;12.33;;;;;;;18.19;100.00;100203.08;1811449;79;21151;-87
2021/05/03 07:55:56;;;;;;;21.05;10.85;;;;;;;18.24;100.00;100199.41;1805537;78;21550;-88
2021/05/03 07:58:24;;;;;;;20.55;12.82;;;;;;;18.27;100.00;100194.28;1822317;78;21079;-88
2021/05/03 08:00:52;;;;;;;18.65;11.53;;;;;;;18.34;100.00;100186.50;1793035;78;21448;-87
2021/05/03 08:03:21;;;;;;;18.70;11.95;;;;;;;18.44;100.00;100186.57;1822463;78;21166;-88
2021/05/03 08:05:49;;;;;;;19.05;11.35;;;;;;;18.59;100.00;100191.05;1818531;78;21158;-92
2021/05/03 08:14:55;;;;;;;20.48;11.25;;;;;;;19.10;100.00;100190.45;1841728;78;22299;-94
2021/05/03 08:17:58;;;;;;;21.85;10.70;;;;;;;19.20;100.00;100192.30;1817105;79;21026;-94
2021/05/03 08:20:30;;;;;;;15.38;9.58;;;;;;;19.28;100.00;100187.44;1816998;79;21299;-89
2021/05/03 08:22:59;;;;;;;;;;;;;;;19.30;100.00;100190.72;1819371;79;21184;-88
2021/05/03 08:25:31;;;;;;;17.32;10.03;;;;;;;19.29;100.00;100181.16;1773427;80;20293;-88
2021/05/03 08:28:01;;;;;;;16.97;9.70;;;;;;;19.28;100.00;100171.59;1748159;80;21151;-94
2021/05/03 08:39:07;;;;;;;22.62;11.08;;;;;;;19.74;100.00;100155.16;1757938;80;21169;-92
2021/05/03 08:41:40;;;;;;;17.80;10.43;;;;;;;20.09;100.00;100161.95;1734735;80;21171;-88
2021/05/03 08:44:15;;;;;;;20.08;10.68;;;;;;;20.28;100.00;100165.27;1769147;80;21548;-92
2021/05/03 08:46:45;;;;;;;13.68;9.58;;;;;;;20.51;100.00;100162.89;1734920;80;21123;-92
2021/05/03 08:54:41;;;;;;;19.52;11.35;;;;;;;21.05;100.00;100150.86;1799143;78;21631;-89
2021/05/03 08:57:14;;;;;;;20.57;11.93;;;;;;;21.22;100.00;100144.75;1812331;79;22102;-89
2021/05/03 08:59:45;;;;;;;14.70;10.10;;;;;;;21.42;100.00;100134.23;1795331;78;21113;-88
2021/05/03 09:09:13;;;;;;;19.07;11.12;;;;;;;21.94;100.00;100117.05;1723706;83;21242;-88
2021/05/03 09:11:47;;;;;;;18.85;10.98;;;;;;;22.04;100.00;100117.44;1726599;81;21370;-87
2021/05/03 09:14:17;;;;;;;18.57;11.50;;;;;;;22.06;100.00;100116.25;1757060;80;21227;-88
2021/05/03 09:16:46;;;;;;;19.67;11.57;;;;;;;22.15;100.00;100128.78;1761210;80;21132;-88
2021/05/03 09:19:15;;;;;;;18.60;11.30;;;;;;;22.24;100.00;100126.73;1756431;80;21143;-93
2021/05/03 09:21:46;;;;;;;17.27;10.65;;;;;;;22.34;100.00;100115.20;1724386;82;21103;-93
2021/05/03 09:24:20;;;;;;;23.90;11.12;;;;;;;22.42;100.00;100117.38;1747008;80;22336;-94
2021/05/03 09:30:34;;;;;;;16.40;11.28;;;;;;;22.24;100.00;100123.27;1754805;80;21144;-88
2021/05/03 09:47:41;;;;;;;22.87;12.50;;;;;;;22.67;100.00;100124.98;1789388;78;21170;-89
2021/05/03 09:50:46;;;;;;;16.10;10.70;;;;;;;22.51;100.00;100118.79;1827120;78;21430;-90
2021/05/03 09:57:16;;;;;;;21.97;11.05;;;;;;;22.49;100.00;100122.16;1832377;78;21115;-94
2021/05/03 10:07:11;;;;;;;18.67;11.50;;;;;;;22.81;100.00;100094.42;1833394;78;21456;-94
2021/05/03 10:10:12;;;;;;;21.70;12.23;;;;;;;22.99;100.00;100088.47;1831648;78;20999;-93
2021/05/03 10:13:10;;;;;;;22.42;12.10;;;;;;;23.20;100.00;100083.38;1813582;78;21094;-94
2021/05/03 10:15:40;;;;;;;27.77;12.25;;;;;;;23.46;100.00;100092.23;1812883;78;21142;-95
2021/05/03 10:18:40;;;;;;;21.25;11.75;;;;;;;23.40;100.00;100095.75;1795028;80;21136;-94
2021/05/03 10:21:41;;;;;;;17.05;11.53;;;;;;;23.27;100.00;100096.14;1788623;79;22112;-92
2021/05/03 10:24:13;;;;;;;17.02;10.48;;;;;;;23.21;100.00;100095.63;1695046;82;21180;-92
2021/05/03 10:27:11;;;;;;;17.67;11.53;;;;;;;23.19;100.00;100093.72;1764617;80;21154;-92
2021/05/03 10:29:42;;;;;;;23.42;12.03;;;;;;;23.07;100.00;100086.08;1695463;83;21830;-93
2021/05/03 10:36:20;;;;;;;18.73;12.20;;;;;;;22.58;100.00;100082.45;1770489;80;21957;-93
2021/05/03 10:38:48;;;;;;;19.48;12.23;;;;;;;22.36;100.00;100084.49;1787451;80;21163;-88
2021/05/03 10:41:25;;;;;;;43.55;12.73;;;;;;;22.23;100.00;100077.39;1794565;80;21193;-89
2021/05/03 10:44:16;;;;;;;19.23;11.50;;;;;;;22.19;100.00;100079.61;1786041;79;21199;-89
2021/05/03 10:58:04;;;;;;;22.70;15.30;;;;;;;21.31;100.00;100087.13;1730576;83;21036;-91
2021/05/03 11:00:34;;;;;;;22.13;15.38;;;;;;;21.23;100.00;100093.93;1784185;80;21194;-91
2021/05/03 11:11:50;;;;;;;25.32;16.87;;;;;;;21.47;100.00;100074.55;1765533;81;21134;-96
2021/05/03 11:15:07;;;;;;;27.45;16.15;;;;;;;21.36;100.00;100071.97;1776098;80;21550;-96
2021/05/03 11:18:27;;;;;;;26.33;16.93;;;;;;;21.37;100.00;100074.41;1757103;81;21550;-89
2021/05/03 11:21:09;;;;;;;27.67;16.57;;;;;;;21.38;100.00;100081.34;1765420;81;21529;-89
2021/05/03 11:23:38;;;;;;;25.48;16.60;;;;;;;21.35;100.00;100084.38;1735053;81;21477;-89
2021/05/03 11:26:45;;;;;;;26.60;17.35;;;;;;;21.29;100.00;100089.16;1728259;83;21144;-89
2021/05/03 11:29:16;;;;;;;22.90;16.52;;;;;;;21.24;100.00;100078.36;1750909;81;21093;-89
2021/05/03 11:31:45;;;;;;;30.62;17.37;;;;;;;21.25;100.00;100067.56;1730822;82;21154;-89
2021/05/03 11:34:32;;;;;;;28.55;17.27;;;;;;;21.27;100.00;100066.05;1763931;80;21137;-89
2021/05/03 12:03:30;;;;;;;24.25;15.28;;;;;;;21.18;100.00;100085.77;1661568;84;21176;-90
2021/05/03 12:06:03;;;;;;;23.83;15.25;;;;;;;21.09;100.00;100095.21;1635842;86;21206;-90
2021/05/03 12:08:32;;;;;;;20.05;14.58;;;;;;;20.96;100.00;100095.13;1666708;84;22151;-90
2021/05/03 12:14:48;;;;;;;28.52;16.02;;;;;;;20.71;100.00;100078.39;1659165;85;21106;-91
2021/05/03 12:17:44;;;;;;;23.35;14.28;;;;;;;20.59;100.00;100084.73;1654531;85;21155;-89
2021/05/03 12:20:25;;;;;;;24.18;16.15;;;;;;;20.54;100.00;100092.95;1666711;85;21203;-90
2021/05/03 12:23:08;;;;;;;24.50;15.93;;;;;;;20.43;100.00;100106.22;1658810;85;22326;-90
2021/05/03 12:42:15;;;;;;;18.35;12.73;;;;;;;19.98;100.00;100108.59;1729698;82;21130;-89
2021/05/03 13:05:35;;;;;;;20.60;12.23;;;;;;;20.07;100.00;100102.66;1868956;76;21114;-90
2021/05/03 13:39:35;;;;;;;25.72;13.35;;;;;;;19.17;100.00;100082.33;1799917;79;20954;-96
2021/05/03 13:46:27;;;;;;;16.00;11.85;;;;;;;19.05;100.00;100074.91;1775399;80;21481;-96
2021/05/03 13:52:21;;;;;;;15.60;10.18;;;;;;;19.07;100.00;100068.11;1802735;79;22133;-89
2021/05/03 13:54:49;;;;;;;14.63;9.75;;;;;;;19.11;100.00;100062.77;1801835;79;21159;-89
2021/05/03 13:57:50;;;;;;;15.48;7.87;;;;;;;19.16;100.00;100072.28;1793024;79;21117;-90
2021/05/03 14:00:19;;;;;;;7.40;6.60;;;;;;;19.22;100.00;100070.73;1775268;79;22688;-89
2021/05/03 14:02:47;;;;;;;10.43;6.00;;;;;;;19.30;100.00;100069.30;1794152;79;21575;-89
2021/05/03 14:05:16;;;;;;;9.25;5.50;;;;;;;19.35;100.00;100056.84;1722678;79;21215;-90
2021/05/03 14:07:44;;;;;;;6.22;4.80;;;;;;;19.43;100.00;100056.72;1794765;78;21229;-90
2021/05/03 14:10:13;;;;;;;7.03;4.30;;;;;;;19.55;100.00;100047.31;1801391;79;21586;-90
2021/05/03 14:12:44;;;;;;;6.37;4.00;;;;;;;19.69;100.00;100035.06;1732903;81;21136;-89
2021/05/03 14:15:21;;;;;;;6.85;3.70;;;;;;;19.78;100.00;100038.89;1787527;78;21133;-89
2021/05/03 14:17:52;;;;;;;6.62;3.65;;;;;;;19.83;100.00;100049.70;1797809;79;21366;-90
2021/05/03 14:20:20;;;;;;;5.72;4.17;;;;;;;19.88;100.00;100035.44;1751477;80;21190;-90
2021/05/03 14:23:20;;;;;;;5.45;3.75;;;;;;;19.89;100.00;100029.66;1765504;80;21175;-90
2021/05/03 14:25:51;;;;;;;3.27;2.95;;;;;;;19.80;100.00;100032.41;1794777;78;21443;-89
2021/05/03 15:02:00;;;;;;;2.55;1.80;;;;;;;18.48;68.90;100093.45;1657424;85;21190;-92
2021/05/03 15:04:28;;;;;;;4.15;2.10;;;;;;;18.40;72.11;100092.21;1670322;83;21233;-92
2021/05/03 15:07:17;;;;;;;3.42;2.45;;;;;;;18.36;74.80;100089.63;1688111;84;21168;-91
2021/05/03 15:10:28;;;;;;;5.15;2.58;;;;;;;18.34;77.05;100106.95;1627395;86;22304;-93
2021/05/03 15:23:41;;;;;;;26.75;11.97;;;;;;;18.08;94.83;100117.85;1794578;78;21139;-95
2021/05/03 15:26:13;;;;;;;19.62;8.40;;;;;;;17.88;100.00;100097.24;1784658;78;21585;-94
2021/05/03 15:36:24;;;;;;;27.52;14.30;;;;;;;17.04;100.00;100108.39;1784625;79;21284;-86
2021/05/03 15:38:56;;;;;;;22.65;14.23;;;;;;;16.82;100.00;100110.74;1784653;80;21182;-85
2021/05/03 15:41:32;;;;;;;7.83;3.67;;;;;;;16.74;100.00;100099.41;1784891;80;20962;-87
2021/05/03 15:44:13;;;;;;;23.15;18.17;;;;;;;16.74;100.00;100099.41;1784794;80;21153;-86
2021/05/03 15:46:37;;;;;;;10.30;9.00;;;;;;;16.76;100.00;100100.06;1777355;80;21112;-86
2021/05/03 15:49:10;;;;;;;10.60;7.45;;;;;;;16.81;100.00;100104.31;1784520;80;21421;-86
2021/05/03 15:51:45;;;;;;;6.83;5.97;;;;;;;16.89;100.00;100108.23;1784580;80;21630;-86
2021/05/03 15:54:14;;;;;;;11.05;6.45;;;;;;;16.94;100.00;100108.59;1784522;80;21230;-86
2021/05/03 15:57:17;;;;;;;7.95;6.87;;;;;;;16.96;100.00;100115.00;1752168;80;21580;-87
2021/05/03 15:59:49;;;;;;;14.20;6.35;;;;;;;16.99;100.00;100125.16;1784706;80;21560;-86
2021/05/03 16:02:25;;;;;;;11.70;5.60;;;;;;;17.08;100.00;100126.77;1784690;80;21603;-87
2021/05/03 16:04:53;;;;;;;7.67;5.10;;;;;;;17.17;100.00;100123.63;1784558;80;21479;-85
2021/05/03 16:07:22;;;;;;;7.45;5.17;;;;;;;17.25;100.00;100121.45;1752339;80;21487;-85
2021/05/03 16:09:50;;;;;;;10.20;6.35;;;;;;;17.29;100.00;100132.78;1752500;80;21542;-85
2021/05/03 16:12:22;;;;;;;11.75;6.70;;;;;;;17.28;100.00;100137.71;1742691;80;21609;-85
2021/05/03 16:14:59;;;;;;;8.70;6.40;;;;;;;17.26;100.00;100150.24;1748333;80;21359;-85
2021/05/03 16:17:30;;;;;;;12.03;6.90;;;;;;;17.26;100.00;100157.30;1777052;80;21103;-86
2021/05/03 16:20:26;;;;;;;19.00;7.20;;;;;;;17.24;100.00;100165.84;1795514;79;21583;-85
2021/05/03 16:23:26;;;;;;;20.37;6.20;;;;;;;17.22;100.00;100164.71;1803749;79;21096;-86
2021/05/03 16:29:53;;;;;;;19.02;5.83;;;;;;;17.20;100.00;100171.95;1776622;80;21421;-86
2021/05/03 16:32:52;;;;;;;7.60;4.50;;;;;;;17.13;100.00;100175.77;1776622;80;21538;-94
2021/05/03 16:35:21;;;;;;;16.85;4.67;;;;;;;17.11;100.00;100184.80;1791681;78;21103;-87
2021/05/03 16:37:49;;;;;;;6.95;3.87;;;;;;;17.05;100.00;100188.10;1800387;79;21152;-86
2021/05/03 16:40:18;;;;;;;6.00;3.15;;;;;;;16.99;100.00;100189.11;1722860;82;21155;-86
2021/05/03 16:42:46;;;;;;;5.03;2.92;;;;;;;16.90;100.00;100187.45;1730921;82;21482;-86
2021/05/03 16:45:15;;;;;;;5.65;3.08;;;;;;;16.84;100.00;100190.76;1745179;81;21170;-85
2021/05/03 16:47:44;;;;;;;12.45;4.00;;;;;;;16.79;100.00;100209.66;1794575;79;21120;-85
2021/05/03 16:54:36;;;;;;;7.33;2.85;;;;;;;16.70;100.00;100225.11;1707970;81;21645;-92
2021/05/03 17:04:20;;;;;;;15.43;4.03;;;;;;;16.11;100.00;100233.10;1791904;79;21143;-88
2021/05/03 17:07:20;;;;;;;8.20;4.58;;;;;;;15.89;100.00;100248.48;1726615;81;21258;-88
2021/05/03 17:09:48;;;;;;;6.12;4.33;;;;;;;15.70;100.00;100254.78;1733794;82;21128;-88
2021/05/03 17:12:20;;;;;;;5.00;4.50;;;;;;;15.46;100.00;100247.13;1721472;83;22338;-87
2021/05/03 17:14:57;;;;;;;5.30;4.25;;;;;;;15.25;100.00;100250.93;1738002;81;21216;-92
2021/05/03 17:30:05;;;;;;;4.45;3.45;;;;;;;14.56;100.00;100267.77;1781983;79;21215;-90
2021/05/03 17:32:35;;;;;;;5.20;3.70;;;;;;;14.41;100.00;100278.42;1813062;79;21119;-90
2021/05/03 17:35:12;;;;;;;6.03;3.80;;;;;;;14.22;100.00;100283.31;1810980;79;21556;-88
2021/05/03 17:37:44;;;;;;;6.72;3.90;;;;;;;14.10;100.00;100288.73;1797506;79;21143;-88
2021/05/03 17:40:14;;;;;;;4.47;3.50;;;;;;;13.98;100.00;100285.48;1779327;79;21171;-87
2021/05/03 17:42:44;;;;;;;6.30;3.67;;;;;;;13.88;100.00;100292.09;1765745;80;21176;-87
2021/05/03 17:45:13;;;;;;;3.27;2.95;;;;;;;13.75;100.00;100299.92;1734667;80;21132;-87
2021/05/03 17:47:41;;;;;;;4.30;2.50;;;;;;;13.54;100.00;100297.86;1764239;80;21167;-87
2021/05/03 17:50:39;;;;;;;3.55;2.92;;;;;;;13.26;100.00;100326.50;1781506;80;21143;-88
2021/05/03 17:53:09;;;;;;;4.45;3.60;;;;;;;12.99;100.00;100325.91;1776846;79;21135;-88
2021/05/03 17:55:37;;;;;;;4.40;3.80;;;;;;;12.71;100.00;100335.39;1782072;78;22105;-87
2021/05/03 17:58:34;;;;;;;4.35;3.87;;;;;;;12.51;100.00;100343.22;1786973;80;21533;-88
2021/05/03 18:01:03;;;;;;;5.75;4.00;;;;;;;12.32;100.00;100340.09;1786958;79;21063;-87
2021/05/03 18:04:00;;;;;;;4.50;4.10;;;;;;;12.20;100.00;100336.75;1784212;80;21106;-87
2021/05/03 18:06:30;;;;;;;4.85;4.35;;;;;;;12.15;100.00;100333.23;1788574;79;21544;-87
2021/05/03 18:09:28;;;;;;;4.97;4.47;;;;;;;12.08;100.00;100339.10;1776652;79;21564;-87
2021/05/03 18:12:27;;;;;;;5.10;4.60;;;;;;;12.04;100.00;100328.09;1773719;80;21084;-89
2021/05/03 18:14:56;;;;;;;6.22;4.80;;;;;;;12.02;100.00;100333.11;1773671;78;21306;-89
2021/05/03 18:17:24;;;;;;;5.78;5.17;;;;;;;12.03;100.00;100338.68;1788065;79;21066;-89
2021/05/03 18:19:53;;;;;;;6.60;4.95;;;;;;;12.02;100.00;100338.33;1787836;79;21173;-89
2021/05/03 18:22:24;;;;;;;5.92;5.42;;;;;;;12.06;100.00;100342.34;1771958;79;21432;-89
2021/05/03 18:24:54;;;;;;;5.85;5.35;;;;;;;12.06;100.00;100334.52;1756096;79;21123;-89
2021/05/03 18:27:27;;;;;;;6.45;5.85;;;;;;;12.03;100.00;100348.63;1725828;82;21240;-89
2021/05/03 18:29:55;;;;;;;8.55;5.60;;;;;;;12.04;100.00;100364.64;1721354;82;21147;-89
2021/05/03 18:32:27;;;;;;;5.67;5.17;;;;;;;12.08;100.00;100373.03;1725623;82;21201;-89
2021/05/03 18:34:55;;;;;;;5.25;4.72;;;;;;;12.08;100.00;100367.80;1703240;82;21213;-89
2021/05/03 18:37:31;;;;;;;8.10;5.10;;;;;;;12.09;100.00;100371.61;1743847;82;21553;-89
2021/05/03 18:39:59;;;;;;;5.78;5.17;;;;;;;12.12;100.00;100370.52;1739055;81;21219;-89
2021/05/03 18:42:31;;;;;;;6.60;5.65;;;;;;;12.13;100.00;100364.34;1745132;82;21063;-88
2021/05/03 18:45:27;;;;;;;8.68;6.22;;;;;;;12.15;100.00;100359.80;1743345;81;21133;-89
2021/05/03 18:47:56;;;;;;;9.68;6.22;;;;;;;12.18;100.00;100349.59;1747282;80;21180;-89
2021/05/03 18:50:25;;;;;;;8.83;6.22;;;;;;;12.17;100.00;100361.80;1755848;81;21148;-90
2021/05/03 18:53:28;;;;;;;7.85;6.00;;;;;;;12.14;100.00;100364.66;1712652;80;21160;-89
2021/05/03 18:55:56;;;;;;;8.83;5.70;;;;;;;12.09;100.00;100357.72;1721450;82;21170;-89
2021/05/03 18:58:27;;;;;;;5.67;5.08;;;;;;;12.03;100.00;100364.77;1715309;82;21131;-89
2021/05/03 19:00:56;;;;;;;6.05;5.55;;;;;;;12.03;100.00;100370.00;1722205;82;21376;-89
2021/05/03 19:03:26;;;;;;;6.60;5.70;;;;;;;12.06;100.00;100368.44;1714723;82;21207;-92
2021/05/03 19:14:36;;;;;;;5.72;5.22;;;;;;;12.12;100.00;100382.27;1789717;79;21191;-92
2021/05/03 20:31:03;;;;;;;4.50;4.10;;;;;;;11.15;100.00;100471.89;1688033;82;21624;-89
2021/05/03 20:33:37;;;;;;;7.33;3.65;;;;;;;11.19;100.00;100481.11;1693527;83;21227;-88
2021/05/03 20:36:20;;;;;;;4.08;3.77;;;;;;;11.18;100.00;100497.23;1687581;84;21275;-88
2021/05/03 20:38:56;;;;;;;3.95;3.40;;;;;;;11.15;100.00;100496.65;1662794;85;21340;-88
2021/05/03 20:41:17;;;;;;;3.98;3.45;;;;;;;11.09;100.00;100503.17;1714580;81;21581;-88
2021/05/03 20:43:45;;;;;;;5.92;3.35;;;;;;;11.06;100.00;100515.13;1729663;81;21176;-88
2021/05/03 20:46:13;;;;;;;5.58;2.95;;;;;;;11.03;100.00;100506.27;1759093;80;21156;-88
2021/05/03 20:48:43;;;;;;;3.55;2.85;;;;;;;10.96;100.00;100516.82;1767775;80;21203;-89
2021/05/03 20:51:11;;;;;;;3.80;3.00;;;;;;;10.88;100.00;100527.83;1758049;79;21114;-88
2021/05/03 20:53:39;;;;;;;7.97;3.35;;;;;;;10.81;100.00;100527.49;1723786;82;21256;-88
2021/05/03 20:56:08;;;;;;;8.25;2.90;;;;;;;10.69;100.00;100533.17;1765092;79;21099;-88
2021/05/03 20:58:54;;;;;;;5.97;2.90;;;;;;;10.62;99.95;100543.68;1711634;82;21248;-89
2021/05/03 21:01:30;;;;;;;5.55;2.85;;;;;;;10.56;100.00;100554.57;1739322;81;22349;-88
2021/05/03 21:03:59;;;;;;;9.80;2.95;;;;;;;10.48;100.00;100543.91;1756470;80;23047;-88
2021/05/03 21:06:47;;;;;;;6.62;3.08;;;;;;;10.41;100.00;100548.28;1756368;81;21433;-89
2021/05/03 21:09:16;;;;;;;3.60;3.25;;;;;;;10.32;100.00;100553.33;1757269;80;21307;-88
2021/05/03 21:11:45;;;;;;;4.90;3.00;;;;;;;10.26;100.00;100552.02;1759410;81;21175;-89
2021/05/03 21:14:15;;;;;;;7.92;3.30;;;;;;;10.22;100.00;100555.77;1754444;81;21270;-88
2021/05/03 21:16:43;;;;;;;5.57;2.80;;;;;;;10.17;100.00;100563.95;1754581;81;21192;-89
2021/05/03 21:19:12;;;;;;;3.47;3.08;;;;;;;10.14;100.00;100569.37;1758995;81;22284;-89
2021/05/03 21:21:42;;;;;;;3.47;2.80;;;;;;;10.09;100.00;100583.20;1757846;81;21223;-88
2021/05/03 21:24:12;;;;;;;4.15;2.87;;;;;;;10.03;100.00;100572.77;1760362;81;21176;-89
2021/05/03 21:26:40;;;;;;;6.37;3.20;;;;;;;9.98;100.00;100581.36;1754986;81;21132;-89
2021/05/03 21:29:08;;;;;;;6.37;3.10;;;;;;;9.89;100.00;100585.96;1757547;81;21173;-89
2021/05/03 21:35:29;;;;;;;5.12;2.90;;;;;;;9.70;100.00;100582.53;1699824;83;21173;-91
2021/05/03 21:45:38;;;;;;;3.72;2.98;;;;;;;9.31;100.00;100594.38;1712927;81;21485;-92
2021/05/03 21:48:55;;;;;;;7.10;3.00;;;;;;;9.21;100.00;100591.59;1684302;84;22198;-91
2021/05/03 21:55:28;;;;;;;6.70;3.37;;;;;;;9.01;100.00;100594.28;1725207;81;21111;-91
2021/05/03 21:58:06;;;;;;;5.70;3.00;;;;;;;8.84;100.00;100598.86;1730718;81;21249;-91
2021/05/03 22:04:00;;;;;;;3.50;2.90;;;;;;;8.69;100.00;100586.92;1728889;81;21894;-87
2021/05/03 22:06:29;;;;;;;4.90;2.90;;;;;;;8.64;100.00;100593.72;1731676;82;21167;-88
2021/05/03 22:12:45;;;;;;;4.15;3.27;;;;;;;8.48;100.00;100595.20;1728508;82;21612;-87
2021/05/03 22:15:14;;;;;;;4.87;2.65;;;;;;;8.41;100.00;100594.39;1728481;82;21171;-88
2021/05/03 22:17:50;;;;;;;5.75;2.75;;;;;;;8.33;100.00;100595.70;1729192;82;22254;-88